Aérodrome :
LOGIN :

S'inscrire | Disclaimer

   EN    FR    IT 

 










Légende :    VFR   VFR Marginal   IFR   IFR Intensif   IFR Très Intensif
Visi : 
Plafond : 
>= 8 km
>= 3000ft
5 à 8 km
1000 à 3000 ft
1500m à 5 km
500 à 1000 ft
800 à 1500m
200 à 500 ft
< 800m
< 200 ft
Symboles :   Orages  Brouillard  Fortes neiges  Fortes précipitations  Vent > 20 kt
SIGMETs :   Divers  Orages  Givrage  Turbulence  Onde Orograph.  Cendres Volcan.







- Altitude de l'aérodrome : 348 ft
- Code IATA : LDV
- Voir les cartes d'approche


LFRJ - Landivisiau

DERNIER METAR :
  • 011730Z AUTO 29015KT 9999 FEW033 SCT220 09/04 Q1006 TEMPO 28020G30KT

METARs EXPIRÉS :
  • 011700Z AUTO 28018KT 9999 FEW034 SCT043 BKN190 09/05 Q1005 TEMPO 25020G30KT
  • 011630Z AUTO 28015G26KT 9999 BKN029 BKN039 BKN170 09/05 Q1005 NOSIG
  • 011600Z AUTO 28019KT 9999 SCT024 BKN029 BKN034 10/06 Q1004 TEMPO 25020G30KT
  • 011530Z AUTO 27017KT 9999 BKN023 BKN028 BKN036 10/07 Q1004 TEMPO 25020G30KT
  • 011500Z AUTO 28016KT 9999 FEW026 BKN033 BKN100 10/07 Q1003 TEMPO 25020G30KT

TAF TAF LFRJ
Valide du 01 à 18h jusqu'au 02 à 03h UTC


011700Z 0118/0203 28017KT 9999 SCT035 BKN043
TEMPO 0118/0122 28020G30KT
TEMPO 0200/0203 CAVOK
Pas de NOTAMs connus pour ce terrain.
1 SIGMET publié pour la FIR Brest (LFRR) :
 
Turbulence forte
LFRR SIGMET 2 VALID 011600/012000 LFPW
LFRR BREST FIR/UIR SEV TURB OBS WI N4715 W00015 - N4630 W00015 - N4630 W00130 - N4530 W00145 - N4715 W00400 - N4745 W00115 SFC/FL040 STNR NC=



MET'MAP, la Météo Aéronautique d'un coup d'oeil ! - Copyright ORBIFLY Décembre 2007 - Disclaimer

ORBIFLY MET'MAP TEAM :

Programmation & Développement : Alexandra Zaïnal
Conception & Développement : Baudouin d'Aumeries
Co-Programmation & Développement : Marc-Olivier Méhu
Soutien technique & logistique : Manuel Goepfert

Contact : metmap@orbifly.com




SOURCES & CREDITS :

   NOAA